Skip Navigation Links
NOAA logo - Click to go to the NOAA homepage
NOAA's National Weather Service
Alaska Aviation Weather Unit
  NWS logo - Click to go to the NWS homepage
Left Navbar Graphic     15 AKDT = 23 GMT

   
NOAA is celebrating 200 years of science, service, and stewardship. Visit the NOAA 200th celebration Web site to learn more.
USA.gov is the U.S. Government's official Web portal to all Federal, state and local government Web resources and services.
Facebook
NWS on Facebook

Important Change Regarding the AAWU Web Presence

 

Over the last several months, the AAWU has been working to navigate its webpages to a nationally supported server. Security, as well as other needs, have necessitated the change.  We have been given an extension for the site changeover while we diligently work at addressing feedback received. As of July 14, 2017, aawu.arh.noaa.gov will be discontinued. The new AAWU web address is weather.gov/aawu. It is now live and will run in-parallel with the old site until it is discontinued on July 14, 2017. Please continue to send any feedback or questions regarding the new webpages to nws.ar.aawu.webauthors@noaa.gov.  Thank you for your patience during this time of transition.
AAWU Home :: Display TAF Add Bookmark
SPECI PAIW 191737Z AUTO 33022G29KT 10SM FEW009 SCT023 BKN047 M01/M04
     A2951 RMK AO2 PK WND 34033/1707 UPB1658E31SNE1658B10E25 P0000
     FZRANO=

METAR PAIW 191756Z AUTO 34020G25KT 10SM FEW022 SCT085 M01/M05 A2951
 RMK AO2 PK WND 34033/1707 UPB1658E31SNE1658B10E25 SLP994 P0000
 60000 T10111050 11006 21022 56021 FZRANO=

SPECI PAIW 191832Z AUTO 34015G25KT 2 1/2SM -SN BR SCT013 BKN023
 BKN032 M02/M04 A2950 RMK AO2 PK WND 31030/1818 VIS 1 1/2V5
 UPB23E26SNB26 P0000 FZRANO=

PAIW 191843Z AUTO 32019G27KT 1SM -SN BR SCT008 BKN014 OVC032
     M02/M03 A2950 RMK AO2 PK WND 31030/1818 UPB23E26SNB26 P0000
     FZRANO=

SPECI PAIW 191848Z AUTO 31017KT 1SM -SN BR BKN008 BKN013 OVC026 M02/M03
     A2950 RMK AO2 PK WND 31030/1818 UPB23E26SNB26 CIG 005V011
     P0000 FZRANO=

SPECI PAIW 191851Z AUTO 31019KT 1 1/4SM -SN BR SCT006 BKN011 OVC028
     M02/M03 A2950 RMK AO2 PK WND 31030/1818 UPB23E26SNB26 P0000
     FZRANO=

SPECI PAIW 191854Z AUTO 31020KT 2SM -SN BR BKN009 BKN016 OVC038 M02/M03
     A2949 RMK AO2 PK WND 31030/1818 UPB23E26SNB26 CIG 005V012
     P0000 FZRANO=

METAR PAIW 191856Z AUTO 31021G26KT 3SM -SN BR SCT009 BKN016 OVC038
     M02/M03 A2949 RMK AO2 PK WND 31030/1818 UPB23E26SNB26 SLP988
     P0000 T10171028 FZRANO=

SPECI PAIW 191915Z AUTO 32021G26KT 9SM FEW009 SCT032 BKN039 M01/M04
     A2948 RMK AO2 PK WND 31031/1900 SNE07 P0000 FZRANO=

SPECI PAIW 191935Z AUTO 34024G31KT 2SM -SN BR FEW008 SCT018 BKN029
     M01/M03 A2949 RMK AO2 PK WND 34031/1932 SNE07B23 P0000
     FZRANO=

METAR PAIW 191956Z AUTO 34023G29KT 3SM -SN BR SCT008 BKN014 OVC023
     M02/M03 A2949 RMK AO2 PK WND 34031/1932 SNE07B23 SLP986 P0000
     T10221033 FZRANO=

SPECI PAIW 192002Z AUTO 34019G29KT 2SM -SN BR BKN008 BKN014 OVC023
     M02/M03 A2949 RMK AO2 PK WND 34027/1957 VIS 1V5 CIG 006V012
     P0000 FZRANO=

SPECI PAIW 192006Z AUTO 34016KT 1 3/4SM -SN BR BKN010 BKN017 OVC023
     M02/M04 A2949 RMK AO2 PK WND 34027/1957 VIS 1V5 CIG 006V013
     P0000 FZRANO=

SPECI PAIW 192011Z AUTO 36014KT 3SM -SN BR BKN010 BKN020 OVC040 M02/M03
     A2948 RMK AO2 PK WND 34027/1957 P0000 FZRANO=

SPECI PAIW 192018Z AUTO 01009KT 8SM -SN FEW010 BKN027 OVC042 M02/M03
     A2948 RMK AO2 PK WND 34027/1957 P0000 FZRANO=

SPECI PAIW 192026Z AUTO 34019G24KT 9SM SCT012 BKN034 OVC055 M02/M03
     A2948 RMK AO2 PK WND 34027/1957 SNE25 P0000 FZRANO=

METAR PAIW 192056Z AUTO 34022KT 10SM SCT034 SCT041 BKN049 M01/M06 A2948
     RMK AO2 PK WND 35027/2034 UPB37E47SNE25 SLP983 P0000 60000
     T10111056 56011 FZRANO=

SPECI PAIW 192134Z AUTO 35027KT 2 1/2SM UP FEW007 BKN027 BKN039
 M02/M04 A2947 RMK AO2 PK WND 32033/2123 VIS 1 1/4V5 UPB22 CIG
 019V035 P0000 FZRANO=

SPECI PAIW 192139Z AUTO 35017G30KT 3SM -SN BR FEW007 SCT025 BKN038
     M02/M04 A2948 RMK AO2 PK WND 32033/2123 UPB22E36SNB36 P0000
     FZRANO=

METAR PAIW 192156Z AUTO 36011KT 9SM FEW005 SCT031 BKN043 M02/M04
 A2947 RMK AO2 PK WND 32033/2123 UPB22E36SNB36E51 SLP981 P0000
 T10221044 FZRANO=

SPECI PAIW 192230Z AUTO 34026KT 1 1/2SM -SN BR SCT008 BKN030 OVC046
 M03/M04 A2946 RMK AO2 PK WND 34030/2226 VIS 1/2V5 SNB20 P0000
 FZRANO=

SPECI PAIW 192234Z AUTO 35019KT 3/4SM -SN BR SCT006 BKN033 OVC043
 M03/M04 A2947 RMK AO2 PK WND 34030/2226 SNB20 P0000 FZRANO=

PAIW 192241Z AUTO 36012KT 3/4SM -SN BR SCT006 BKN012 OVC043
     M03/M04 A2947 RMK AO2 PK WND 34030/2226 SNB20 P0000
     FZRANO=

SPECI PAIW 192247Z AUTO 35011KT 1 1/4SM -SN BR FEW006 BKN012 OVC030
     M03/M04 A2947 RMK AO2 PK WND 34030/2226 SNB20 P0000
     FZRANO=

METAR PAIW 192256Z AUTO 34020G25KT 3SM -SN BR FEW006 BKN012 OVC023
 M03/M04 A2946 RMK AO2 PK WND 34030/2226 SNB20 SLP977 P0001
 T10281039 FZRANO=

SPECI PAIW 192309Z AUTO 34018KT 9SM SCT011 BKN018 BKN023 M02/M04 A2946
     RMK AO2 SNE08 P0000 FZRANO=

SPECI PAIW 192318Z AUTO 36016KT 10SM FEW013 SCT028 SCT048 M02/M04 A2946
     RMK AO2 SNE08 P0000 FZRANO=


NOAA's National Weather Service
Alaska Aviation Weather Unit
6930 Sand Lake Road
Anchorage, AK 99502-1845
Disclaimer
Credits
Glossary
Privacy Policy
About Us
Career Opportunities
Contact AAWU Internet Services Site last modified: April, 17th 2012